createdAt,value
2022-11-12T00:01:16.155Z,2.77
2022-11-12T00:06:12.535Z,2.85
2022-11-12T00:11:08.973Z,2.75
2022-11-12T00:16:05.772Z,2.78
2022-11-12T00:21:02.130Z,2.70
2022-11-12T00:26:00.071Z,2.53
2022-11-12T00:30:56.476Z,2.51
2022-11-12T00:35:52.831Z,2.48
2022-11-12T00:40:49.173Z,2.47
2022-11-12T00:45:45.513Z,2.30
2022-11-12T00:50:41.833Z,2.27
2022-11-12T00:55:38.254Z,2.29
2022-11-12T01:00:34.612Z,2.30
2022-11-12T01:05:33.109Z,2.28
2022-11-12T01:10:29.503Z,2.20
2022-11-12T01:15:25.855Z,2.11
2022-11-12T01:20:22.305Z,2.03
2022-11-12T01:25:18.693Z,2.04
2022-11-12T01:30:15.144Z,2.06
2022-11-12T01:35:11.472Z,1.97
2022-11-12T01:40:08.483Z,1.92
2022-11-12T01:45:18.047Z,1.76
2022-11-12T01:50:16.985Z,1.73
2022-11-12T01:55:18.862Z,1.68
2022-11-12T02:00:16.033Z,1.54
2022-11-12T02:05:13.936Z,1.57
2022-11-12T02:10:10.519Z,1.70
2022-11-12T02:15:07.474Z,1.65
2022-11-12T02:20:04.225Z,1.62
2022-11-12T02:25:00.562Z,1.72
2022-11-12T02:29:56.978Z,1.70
2022-11-12T02:34:53.322Z,1.52
2022-11-12T02:39:49.685Z,1.46
2022-11-12T02:44:46.215Z,1.53
2022-11-12T02:49:44.526Z,1.57
2022-11-12T02:54:40.878Z,1.47
2022-11-12T02:59:37.237Z,1.29
2022-11-12T03:04:33.611Z,1.24
2022-11-12T03:09:29.978Z,1.21
2022-11-12T03:14:26.362Z,1.29
2022-11-12T03:19:22.693Z,1.24
2022-11-12T03:24:19.022Z,1.32
2022-11-12T03:29:15.391Z,1.33
2022-11-12T03:34:11.892Z,1.30
2022-11-12T03:39:08.226Z,1.24
2022-11-12T03:44:04.683Z,1.22
2022-11-12T03:49:02.606Z,1.23
2022-11-12T03:53:58.925Z,1.16
2022-11-12T03:58:55.249Z,1.04
2022-11-12T04:03:51.577Z,1.03
2022-11-12T04:08:47.913Z,1.04
2022-11-12T04:13:47.698Z,1.00
2022-11-12T04:19:03.923Z,1.07
2022-11-12T04:24:00.270Z,0.88
2022-11-12T04:29:15.163Z,0.76
2022-11-12T04:34:29.913Z,0.89
2022-11-12T04:39:26.435Z,0.92
2022-11-12T04:44:41.284Z,0.77
2022-11-12T04:49:37.610Z,0.84
2022-11-12T04:54:34.227Z,0.87
2022-11-12T04:59:30.573Z,0.86
2022-11-12T05:04:28.789Z,0.89
2022-11-12T05:09:27.666Z,0.86
2022-11-12T05:14:24.585Z,0.82
2022-11-12T05:19:21.022Z,0.86
2022-11-12T05:24:33.947Z,0.79
2022-11-12T05:29:33.713Z,0.73
2022-11-12T05:34:30.111Z,0.58
2022-11-12T05:39:26.647Z,0.54
2022-11-12T05:44:23.104Z,0.55
2022-11-12T05:49:19.413Z,0.30
2022-11-12T05:54:15.801Z,0.43
2022-11-12T05:59:13.577Z,0.58
2022-11-12T06:04:12.090Z,0.63
2022-11-12T06:09:09.225Z,0.61
2022-11-12T06:14:05.905Z,0.68
2022-11-12T06:19:02.377Z,0.67
2022-11-12T06:23:59.918Z,0.68
2022-11-12T06:28:57.064Z,0.56
2022-11-12T06:33:53.465Z,0.62
2022-11-12T06:38:49.844Z,0.67
2022-11-12T06:43:46.200Z,0.58
2022-11-12T06:48:42.875Z,0.65
2022-11-12T06:53:39.277Z,0.65
2022-11-12T06:58:36.447Z,0.68
2022-11-12T07:03:32.861Z,0.80
2022-11-12T07:08:29.633Z,0.85
2022-11-12T07:13:26.241Z,0.97
2022-11-12T07:18:22.715Z,1.08
2022-11-12T07:23:19.130Z,1.20
2022-11-12T07:28:15.477Z,1.24
2022-11-12T07:33:11.900Z,1.18
2022-11-12T07:38:08.267Z,1.28
2022-11-12T07:43:04.645Z,1.50
2022-11-12T07:48:01.012Z,1.69
2022-11-12T07:53:00.497Z,1.85
2022-11-12T07:58:00.110Z,2.10
2022-11-12T08:03:00.114Z,2.43
2022-11-12T08:07:57.063Z,2.71
2022-11-12T08:12:56.331Z,2.99
2022-11-12T08:17:52.706Z,3.06
2022-11-12T08:22:49.736Z,3.30
2022-11-12T08:27:46.131Z,3.65
2022-11-12T08:32:42.539Z,3.92
2022-11-12T08:37:39.075Z,4.28
2022-11-12T08:42:35.424Z,4.88
2022-11-12T08:47:31.798Z,5.41
2022-11-12T08:52:28.158Z,5.64
2022-11-12T08:57:24.611Z,6.08
2022-11-12T09:02:22.105Z,6.35
2022-11-12T09:07:47.965Z,6.46
2022-11-12T09:12:34.767Z,6.51
2022-11-12T09:17:32.493Z,6.59
2022-11-12T09:22:29.006Z,6.72
2022-11-12T09:27:29.022Z,6.60
2022-11-12T09:32:25.397Z,6.67
2022-11-12T09:37:21.736Z,6.74
2022-11-12T09:42:21.123Z,6.78
2022-11-12T09:47:23.630Z,6.94
2022-11-12T09:52:25.944Z,7.19
2022-11-12T09:57:22.317Z,7.51
2022-11-12T10:02:32.812Z,7.89
2022-11-12T10:07:46.302Z,8.32
2022-11-12T10:13:01.114Z,8.68
2022-11-12T10:18:06.539Z,9.12
2022-11-12T10:23:17.463Z,9.80
2022-11-12T10:28:31.843Z,10.39
2022-11-12T10:33:31.917Z,10.54
2022-11-12T10:38:29.128Z,10.57
2022-11-12T10:43:25.792Z,10.52
2022-11-12T10:48:28.565Z,10.45
2022-11-12T10:53:39.116Z,10.48
2022-11-12T10:58:35.521Z,10.26
2022-11-12T11:03:35.501Z,10.24
2022-11-12T11:08:36.486Z,10.28
2022-11-12T11:13:33.058Z,10.39
2022-11-12T11:18:32.506Z,10.57
2022-11-12T11:23:53.330Z,10.68
2022-11-12T11:29:27.191Z,11.04
2022-11-12T11:34:35.562Z,11.37
2022-11-12T11:39:58.991Z,11.62
2022-11-12T11:45:21.828Z,11.72
2022-11-12T11:50:26.007Z,11.95
2022-11-12T11:55:43.872Z,11.99
2022-11-12T12:00:43.292Z,12.17
2022-11-12T12:06:06.945Z,12.46
2022-11-12T12:11:12.849Z,12.56
2022-11-12T12:16:17.211Z,12.55
2022-11-12T12:21:17.130Z,12.61
2022-11-12T12:26:24.579Z,12.60
2022-11-12T12:31:27.004Z,12.54
2022-11-12T12:36:39.600Z,12.67
2022-11-12T12:41:42.112Z,12.85
2022-11-12T12:46:53.176Z,12.95
2022-11-12T12:51:55.434Z,13.15
2022-11-12T12:56:52.495Z,13.42
2022-11-12T13:02:01.069Z,13.31
2022-11-12T13:06:57.552Z,13.06
2022-11-12T13:12:05.781Z,12.84
2022-11-12T13:17:11.685Z,12.57
2022-11-12T13:22:17.046Z,12.46
2022-11-12T13:27:13.383Z,12.36
2022-11-12T13:32:30.979Z,12.21
2022-11-12T13:37:27.348Z,12.16
2022-11-12T13:42:42.180Z,12.15
2022-11-12T13:47:38.582Z,12.13
2022-11-12T13:52:35.789Z,11.97
2022-11-12T13:57:32.945Z,11.80
2022-11-12T14:02:29.371Z,11.74
2022-11-12T14:07:40.416Z,11.68
2022-11-12T14:13:03.502Z,11.50
2022-11-12T14:18:17.323Z,11.37
2022-11-12T14:23:24.454Z,11.24
2022-11-12T14:28:26.295Z,11.16
2022-11-12T14:33:26.659Z,11.24
2022-11-12T14:38:36.980Z,11.29
2022-11-12T14:43:36.851Z,11.10
2022-11-12T14:48:46.074Z,11.02
2022-11-12T14:53:51.137Z,10.83
2022-11-12T14:58:47.567Z,10.65
2022-11-12T15:03:44.047Z,10.60
2022-11-12T15:08:40.581Z,10.50
2022-11-12T15:13:42.576Z,10.29
2022-11-12T15:18:40.261Z,10.13
2022-11-12T15:23:36.747Z,9.93
2022-11-12T15:28:33.172Z,9.76
2022-11-12T15:33:29.827Z,9.58
2022-11-12T15:38:32.456Z,9.47
2022-11-12T15:43:32.038Z,9.37
2022-11-12T15:48:28.504Z,9.16
2022-11-12T15:53:25.079Z,9.00
2022-11-12T15:58:30.838Z,8.91
2022-11-12T16:03:27.666Z,8.70
2022-11-12T16:08:24.287Z,8.51
2022-11-12T16:13:32.045Z,8.37
2022-11-12T16:18:28.407Z,8.28
2022-11-12T16:23:25.197Z,8.27
2022-11-12T16:28:21.819Z,8.21
2022-11-12T16:33:18.183Z,8.12
2022-11-12T16:38:16.625Z,8.00
2022-11-12T16:43:13.013Z,7.92
2022-11-12T16:48:17.457Z,7.92
2022-11-12T16:53:13.991Z,7.90
2022-11-12T16:58:14.520Z,7.87
2022-11-12T17:03:14.077Z,7.95
2022-11-12T17:08:11.029Z,7.81
2022-11-12T17:13:11.905Z,7.68
2022-11-12T17:18:09.642Z,7.66
2022-11-12T17:23:06.364Z,7.63
2022-11-12T17:28:02.746Z,7.61
2022-11-12T17:32:59.853Z,7.77
2022-11-12T17:37:56.222Z,7.68
2022-11-12T17:42:53.770Z,7.70
2022-11-12T17:47:50.127Z,7.61
2022-11-12T17:52:46.500Z,7.45
2022-11-12T17:57:42.994Z,7.43
2022-11-12T18:02:39.502Z,7.32
2022-11-12T18:07:35.954Z,7.41
2022-11-12T18:12:32.431Z,7.36
2022-11-12T18:17:28.875Z,7.29
2022-11-12T18:22:26.984Z,7.23
2022-11-12T18:27:23.434Z,7.21
2022-11-12T18:32:19.900Z,7.25
2022-11-12T18:37:16.389Z,7.25
2022-11-12T18:42:12.954Z,7.21
2022-11-12T18:47:09.383Z,7.24
2022-11-12T18:52:05.793Z,7.26
2022-11-12T18:57:02.263Z,7.27
2022-11-12T19:01:59.207Z,7.42
2022-11-12T19:06:55.884Z,7.53
2022-11-12T19:11:52.311Z,7.58
2022-11-12T19:16:48.728Z,7.51
2022-11-12T19:21:45.145Z,7.58
2022-11-12T19:26:41.565Z,7.55
2022-11-12T19:31:37.907Z,7.38
2022-11-12T19:36:34.304Z,7.18
2022-11-12T19:41:30.720Z,7.02
2022-11-12T19:46:27.321Z,6.89
2022-11-12T19:51:24.621Z,6.88
2022-11-12T19:56:22.462Z,6.79
2022-11-12T20:01:19.540Z,6.68
2022-11-12T20:06:19.116Z,6.69
2022-11-12T20:11:16.264Z,6.86
2022-11-12T20:16:16.734Z,6.94
2022-11-12T20:21:14.787Z,6.95
2022-11-12T20:26:13.349Z,6.88
2022-11-12T20:31:11.227Z,6.74
2022-11-12T20:36:09.033Z,6.61
2022-11-12T20:41:06.491Z,6.70
2022-11-12T20:46:02.891Z,6.58
2022-11-12T20:51:25.390Z,6.41
2022-11-12T20:56:24.477Z,6.29
2022-11-12T21:01:23.071Z,6.22
2022-11-12T21:06:22.625Z,5.99
2022-11-12T21:11:21.679Z,5.78
2022-11-12T21:16:18.157Z,5.87
2022-11-12T21:21:18.235Z,5.63
2022-11-12T21:26:17.193Z,5.62
2022-11-12T21:31:21.873Z,5.59
2022-11-12T21:36:20.101Z,5.53
2022-11-12T21:41:19.232Z,5.59
2022-11-12T21:46:23.339Z,5.57
2022-11-12T21:51:21.763Z,5.52
2022-11-12T21:56:18.993Z,5.43
2022-11-12T22:01:20.995Z,5.37
2022-11-12T22:06:18.848Z,5.23
2022-11-12T22:11:17.813Z,5.12
2022-11-12T22:16:23.152Z,5.11
2022-11-12T22:21:22.373Z,5.14
2022-11-12T22:26:25.401Z,5.05
2022-11-12T22:31:24.704Z,5.08
2022-11-12T22:36:23.265Z,5.15
2022-11-12T22:41:25.286Z,5.20
2022-11-12T22:46:26.711Z,5.19
2022-11-12T22:51:26.273Z,5.18
2022-11-12T22:56:24.355Z,5.28
2022-11-12T23:01:23.468Z,5.17
2022-11-12T23:06:20.141Z,5.10
2022-11-12T23:11:18.644Z,5.03
2022-11-12T23:16:17.695Z,5.12
2022-11-12T23:21:19.257Z,5.19
2022-11-12T23:26:24.598Z,5.10
2022-11-12T23:31:23.723Z,5.13
2022-11-12T23:36:21.530Z,5.09
2022-11-12T23:41:22.696Z,5.17
2022-11-12T23:46:19.348Z,5.23
2022-11-12T23:51:20.910Z,5.28
2022-11-12T23:56:18.843Z,5.30
